Time;durP1;ratioP1;P1;durP2;ratioP2;P2;SDS_P1;SDS_P2;PMS_P1;PMS_P2;Temp;Humidity;BMP_temperature;BMP_pressure;BME280_temperature;BME280_humidity;BME280_pressure;Samples;Min_cycle;Max_cycle;Signal;HPM_P1;HPM_P2
2023/12/13 00:02:36;;;;;;;145.68;59.28;;;;;;;;;;6272687;28;20063;-63
2023/12/13 00:05:38;;;;;;;161.85;62.13;;;;;;;;;;6269620;28;20412;-63
2023/12/13 00:08:38;;;;;;;164.57;64.07;;;;;;;;;;6273432;28;20049;-63
2023/12/13 00:11:39;;;;;;;156.60;65.43;;;;;;;;;;6271476;28;20502;-63
2023/12/13 00:14:40;;;;;;;141.70;60.50;;;;;;;;;;6271726;28;20143;-63
2023/12/13 00:17:41;;;;;;;131.55;61.13;;;;;;;;;;6271092;28;20073;-64
2023/12/13 00:20:43;;;;;;;;;;;;;;;;;;6272064;28;20052;-63
2023/12/13 00:23:47;;;;;;;116.70;50.97;;;;;;;;;;6271261;28;20414;-63
2023/12/13 00:26:49;;;;;;;113.32;50.60;;;;;;;;;;6272574;28;20037;-63
2023/12/13 00:29:50;;;;;;;124.93;52.53;;;;;;;;;;6270159;28;20253;-64
2023/12/13 00:32:50;;;;;;;116.15;53.65;;;;;;;;;;6272533;28;20049;-63
2023/12/13 00:35:51;;;;;;;96.80;49.75;;;;;;;;;;6272334;28;20053;-63
2023/12/13 00:38:52;;;;;;;115.97;51.00;;;;;;;;;;6265921;28;20055;-63
2023/12/13 00:41:53;;;;;;;88.82;44.03;;;;;;;;;;6266702;28;20041;-63
2023/12/13 00:44:53;;;;;;;89.88;45.08;;;;;;;;;;6268746;28;20052;-64
2023/12/13 00:47:54;;;;;;;100.22;47.42;;;;;;;;;;6267326;28;20044;-63
2023/12/13 00:50:56;;;;;;;103.50;45.03;;;;;;;;;;6266661;28;20041;-63
2023/12/13 00:53:57;;;;;;;104.10;46.97;;;;;;;;;;6259858;28;20049;-63
2023/12/13 00:56:57;;;;;;;96.57;43.22;;;;;;;;;;6263464;28;20084;-64
2023/12/13 00:59:58;;;;;;;91.60;43.00;;;;;;;;;;6267688;28;20468;-63
2023/12/13 01:02:59;;;;;;;84.18;39.97;;;;;;;;;;6268587;28;20087;-64
2023/12/13 01:06:00;;;;;;;80.40;35.80;;;;;;;;;;6265583;28;20049;-63
2023/12/13 01:09:00;;;;;;;70.47;31.63;;;;;;;;;;6265729;28;20043;-63
2023/12/13 01:12:02;;;;;;;64.32;31.38;;;;;;;;;;6267598;28;20052;-64
2023/12/13 01:15:03;;;;;;;70.07;34.40;;;;;;;;;;6265404;28;20078;-63
2023/12/13 01:18:04;;;;;;;93.55;41.78;;;;;;;;;;6266263;28;20480;-63
2023/12/13 01:21:04;;;;;;;99.63;43.80;;;;;;;;;;6267040;28;20049;-64
2023/12/13 01:24:05;;;;;;;100.95;44.47;;;;;;;;;;6267151;28;20048;-63
2023/12/13 01:27:06;;;;;;;98.50;42.03;;;;;;;;;;6266322;28;20166;-63
2023/12/13 01:30:08;;;;;;;94.57;43.65;;;;;;;;;;6266119;28;20820;-63
2023/12/13 01:33:08;;;;;;;67.90;34.10;;;;;;;;;;6267641;28;20064;-64
2023/12/13 01:36:09;;;;;;;63.00;29.45;;;;;;;;;;6257868;28;20449;-64
2023/12/13 01:39:13;;;;;;;59.30;28.35;;;;;;;;;;6265554;28;20128;-64
2023/12/13 01:42:14;;;;;;;72.03;32.53;;;;;;;;;;6264267;28;20040;-64
2023/12/13 01:45:14;;;;;;;71.47;32.85;;;;;;;;;;6263924;28;20561;-64
2023/12/13 01:48:15;;;;;;;70.97;31.85;;;;;;;;;;6266529;28;20059;-63
2023/12/13 01:51:16;;;;;;;72.88;31.10;;;;;;;;;;6267550;28;20040;-64
2023/12/13 01:54:18;;;;;;;63.85;30.67;;;;;;;;;;6265279;28;20041;-63
2023/12/13 01:57:19;;;;;;;62.92;28.73;;;;;;;;;;6260627;28;20480;-63
2023/12/13 02:00:20;;;;;;;62.97;29.03;;;;;;;;;;6266076;28;20082;-64
2023/12/13 02:03:24;;;;;;;62.35;29.35;;;;;;;;;;6266517;28;20037;-64
2023/12/13 02:06:25;;;;;;;59.50;28.33;;;;;;;;;;6262098;28;20049;-63
2023/12/13 02:09:25;;;;;;;52.38;23.85;;;;;;;;;;6265391;28;20051;-64
2023/12/13 02:12:26;;;;;;;58.22;27.23;;;;;;;;;;6264977;28;20577;-64
2023/12/13 02:15:27;;;;;;;63.60;29.17;;;;;;;;;;6265720;28;20045;-63
2023/12/13 02:18:28;;;;;;;52.97;22.40;;;;;;;;;;6263915;28;20131;-63
2023/12/13 02:21:29;;;;;;;41.92;19.15;;;;;;;;;;6263459;28;20045;-63
2023/12/13 02:24:31;;;;;;;41.83;18.98;;;;;;;;;;6263944;28;20049;-63
2023/12/13 02:27:31;;;;;;;40.35;19.40;;;;;;;;;;6263297;28;20053;-63
2023/12/13 02:30:32;;;;;;;35.95;18.25;;;;;;;;;;6265144;28;20525;-63
2023/12/13 02:33:33;;;;;;;38.25;19.38;;;;;;;;;;6265435;28;20048;-63
2023/12/13 02:36:33;;;;;;;42.00;19.60;;;;;;;;;;6264165;28;20087;-64
2023/12/13 02:39:34;;;;;;;62.80;24.80;;;;;;;;;;6264030;28;20761;-64
2023/12/13 02:42:35;;;;;;;45.83;21.67;;;;;;;;;;6265522;28;20064;-64
2023/12/13 02:45:36;;;;;;;77.95;30.15;;;;;;;;;;6264282;28;20541;-64
2023/12/13 02:48:36;;;;;;;45.78;21.35;;;;;;;;;;6265137;28;20236;-63
2023/12/13 02:51:37;;;;;;;62.20;24.73;;;;;;;;;;6265852;28;20049;-64
2023/12/13 02:54:38;;;;;;;59.10;24.15;;;;;;;;;;6263790;28;20415;-64
2023/12/13 02:57:38;;;;;;;68.30;27.88;;;;;;;;;;6264149;28;20040;-65
2023/12/13 03:00:39;;;;;;;57.25;23.15;;;;;;;;;;6263468;28;20060;-64
2023/12/13 03:03:40;;;;;;;50.25;23.38;;;;;;;;;;6264230;28;20057;-65
2023/12/13 03:06:40;;;;;;;53.08;23.83;;;;;;;;;;6264048;28;20084;-64
2023/12/13 03:09:41;;;;;;;51.88;23.27;;;;;;;;;;6265091;28;20060;-64
2023/12/13 03:12:42;;;;;;;48.63;22.50;;;;;;;;;;6265255;28;20052;-64
2023/12/13 03:15:43;;;;;;;51.42;23.98;;;;;;;;;;6262782;28;20053;-65
2023/12/13 03:18:43;;;;;;;64.05;27.05;;;;;;;;;;6264419;28;20586;-64
2023/12/13 03:21:44;;;;;;;52.60;24.38;;;;;;;;;;6265709;28;20061;-64
2023/12/13 03:24:45;;;;;;;50.65;22.88;;;;;;;;;;6262857;28;20118;-64
2023/12/13 03:27:45;;;;;;;52.92;25.10;;;;;;;;;;6261841;28;20052;-65
2023/12/13 03:30:46;;;;;;;51.20;26.15;;;;;;;;;;6263223;28;20376;-64
2023/12/13 03:33:46;;;;;;;51.22;24.88;;;;;;;;;;6265212;28;20041;-64
2023/12/13 03:36:47;;;;;;;44.97;20.63;;;;;;;;;;6263160;28;20080;-62
2023/12/13 03:39:48;;;;;;;41.47;20.75;;;;;;;;;;6264947;28;20049;-62
2023/12/13 03:42:49;;;;;;;44.35;20.40;;;;;;;;;;6265344;28;20087;-62
2023/12/13 03:45:49;;;;;;;40.72;19.40;;;;;;;;;;6262238;28;20056;-63
2023/12/13 03:48:50;;;;;;;40.00;18.08;;;;;;;;;;6263750;28;20041;-63
2023/12/13 03:51:50;;;;;;;36.58;18.73;;;;;;;;;;6262471;28;20103;-64
2023/12/13 03:54:51;;;;;;;38.35;18.15;;;;;;;;;;6263706;28;20136;-64
2023/12/13 03:57:52;;;;;;;32.60;16.38;;;;;;;;;;6261890;28;20051;-63
2023/12/13 04:00:53;;;;;;;35.65;15.95;;;;;;;;;;6261587;28;20087;-63
2023/12/13 04:03:53;;;;;;;31.05;15.55;;;;;;;;;;6264161;28;20041;-63
2023/12/13 04:06:56;;;;;;;36.88;16.77;;;;;;;;;;6261282;28;20044;-64
2023/12/13 04:09:56;;;;;;;41.28;18.10;;;;;;;;;;6263837;28;20049;-64
2023/12/13 04:12:57;;;;;;;35.90;17.30;;;;;;;;;;6267449;28;20483;-64
2023/12/13 04:15:58;;;;;;;41.42;18.30;;;;;;;;;;6267671;28;20041;-63
2023/12/13 04:18:59;;;;;;;36.25;17.67;;;;;;;;;;6269722;28;20048;-64
2023/12/13 04:21:59;;;;;;;38.20;17.58;;;;;;;;;;6270433;28;20029;-63
2023/12/13 04:25:00;;;;;;;38.35;17.27;;;;;;;;;;6269094;28;20052;-63
2023/12/13 04:28:01;;;;;;;34.92;17.00;;;;;;;;;;6269027;28;20040;-64
2023/12/13 04:31:02;;;;;;;37.40;17.27;;;;;;;;;;6269184;28;20128;-64
2023/12/13 04:34:03;;;;;;;37.90;17.48;;;;;;;;;;6268819;28;20645;-64
2023/12/13 04:37:04;;;;;;;36.42;17.98;;;;;;;;;;6267234;28;20049;-64
2023/12/13 04:40:07;;;;;;;34.72;16.40;;;;;;;;;;6267730;28;20048;-64
2023/12/13 04:43:08;;;;;;;36.40;17.90;;;;;;;;;;6267987;28;20171;-63
2023/12/13 04:46:09;;;;;;;33.90;17.88;;;;;;;;;;6266978;28;20049;-63
2023/12/13 04:49:10;;;;;;;35.72;18.75;;;;;;;;;;6270232;28;20061;-63
2023/12/13 04:52:12;;;;;;;41.13;18.60;;;;;;;;;;6267754;28;20511;-64
2023/12/13 04:55:13;;;;;;;37.80;17.98;;;;;;;;;;6265352;28;20410;-64
2023/12/13 04:58:13;;;;;;;33.55;18.05;;;;;;;;;;6267783;28;20045;-64
2023/12/13 05:01:14;;;;;;;35.33;17.55;;;;;;;;;;6268376;28;20069;-64
2023/12/13 05:04:15;;;;;;;33.45;17.08;;;;;;;;;;6266461;28;20415;-64
2023/12/13 05:07:16;;;;;;;38.78;16.90;;;;;;;;;;6268127;28;20514;-64
2023/12/13 05:10:17;;;;;;;36.97;18.23;;;;;;;;;;6265681;28;20412;-64
2023/12/13 05:13:18;;;;;;;36.40;18.20;;;;;;;;;;6265074;28;20060;-64
2023/12/13 05:16:19;;;;;;;36.50;18.80;;;;;;;;;;6265757;28;20037;-63
2023/12/13 05:19:20;;;;;;;38.33;19.75;;;;;;;;;;6266176;28;20068;-64
2023/12/13 05:22:21;;;;;;;39.30;18.92;;;;;;;;;;6266197;28;20044;-63
2023/12/13 05:25:22;;;;;;;36.38;18.25;;;;;;;;;;6263530;28;20156;-63
2023/12/13 05:28:22;;;;;;;35.60;17.52;;;;;;;;;;6261264;28;20041;-63
2023/12/13 05:31:24;;;;;;;37.90;18.08;;;;;;;;;;6265838;28;20076;-63
2023/12/13 05:34:25;;;;;;;33.08;18.05;;;;;;;;;;6266039;28;20453;-63
2023/12/13 05:37:27;;;;;;;37.53;18.27;;;;;;;;;;6265892;28;20139;-63
2023/12/13 05:40:27;;;;;;;37.28;20.42;;;;;;;;;;6267373;28;20044;-63
2023/12/13 05:43:28;;;;;;;41.53;19.45;;;;;;;;;;6265971;28;20047;-63
2023/12/13 05:46:33;;;;;;;42.05;20.63;;;;;;;;;;6266165;28;20388;-63
2023/12/13 05:49:34;;;;;;;38.97;19.65;;;;;;;;;;6266462;28;20105;-63
2023/12/13 05:52:36;;;;;;;41.20;20.63;;;;;;;;;;6264168;28;20503;-63
2023/12/13 05:55:37;;;;;;;45.20;21.77;;;;;;;;;;6266162;28;20136;-63
2023/12/13 05:58:38;;;;;;;45.42;22.88;;;;;;;;;;6265283;28;20490;-63
2023/12/13 06:01:39;;;;;;;48.80;23.65;;;;;;;;;;6262611;28;20080;-63
2023/12/13 06:04:41;;;;;;;44.85;22.70;;;;;;;;;;6266733;28;20049;-63
2023/12/13 06:07:43;;;;;;;53.22;26.55;;;;;;;;;;6265333;28;20071;-63
2023/12/13 06:10:44;;;;;;;56.90;27.80;;;;;;;;;;6265317;28;20041;-63
2023/12/13 06:13:45;;;;;;;54.03;25.65;;;;;;;;;;6266284;28;20053;-63
2023/12/13 06:16:46;;;;;;;57.35;25.63;;;;;;;;;;6264442;28;20408;-64
2023/12/13 06:19:47;;;;;;;50.88;25.73;;;;;;;;;;6266513;28;20110;-63
2023/12/13 06:22:47;;;;;;;56.88;27.20;;;;;;;;;;6265933;28;20049;-63
2023/12/13 06:25:48;;;;;;;63.72;29.55;;;;;;;;;;6265648;28;20053;-63
2023/12/13 06:28:49;;;;;;;63.95;29.88;;;;;;;;;;6264768;28;20106;-63
2023/12/13 06:31:50;;;;;;;59.80;29.85;;;;;;;;;;6266611;28;20056;-63
2023/12/13 06:34:50;;;;;;;65.63;29.60;;;;;;;;;;6265098;28;20076;-63
2023/12/13 06:37:51;;;;;;;58.88;28.70;;;;;;;;;;6264683;28;20049;-63
2023/12/13 06:40:52;;;;;;;53.70;28.15;;;;;;;;;;6266017;28;20053;-63
2023/12/13 06:43:53;;;;;;;57.90;27.60;;;;;;;;;;6266299;28;20740;-63
2023/12/13 06:46:54;;;;;;;63.17;28.10;;;;;;;;;;6263401;28;20055;-63
2023/12/13 06:49:54;;;;;;;55.45;29.40;;;;;;;;;;6261309;28;21158;-63
2023/12/13 06:52:55;;;;;;;62.53;28.65;;;;;;;;;;6264809;28;20049;-63
2023/12/13 06:55:57;;;;;;;53.78;27.58;;;;;;;;;;6260828;28;20045;-63
2023/12/13 06:58:57;;;;;;;54.40;25.73;;;;;;;;;;6264649;28;20041;-63
2023/12/13 07:01:58;;;;;;;58.17;26.23;;;;;;;;;;6263690;28;20173;-63
2023/12/13 07:04:59;;;;;;;54.83;27.20;;;;;;;;;;6264174;28;20060;-63
2023/12/13 07:08:00;;;;;;;52.85;25.65;;;;;;;;;;6265916;28;20131;-64
2023/12/13 07:11:03;;;;;;;53.45;23.67;;;;;;;;;;6262289;28;20152;-64
2023/12/13 07:14:04;;;;;;;50.67;24.70;;;;;;;;;;6253658;28;20063;-64
2023/12/13 07:17:04;;;;;;;53.10;25.92;;;;;;;;;;6261188;28;20049;-64
2023/12/13 07:20:06;;;;;;;52.28;24.00;;;;;;;;;;6263186;28;20106;-64
2023/12/13 07:23:07;;;;;;;50.73;24.47;;;;;;;;;;6258707;28;20059;-63
2023/12/13 07:26:07;;;;;;;59.20;27.27;;;;;;;;;;6253818;28;20049;-63
2023/12/13 07:29:08;;;;;;;131.70;52.70;;;;;;;;;;6263873;28;20053;-64
2023/12/13 07:32:09;;;;;;;110.80;45.20;;;;;;;;;;6264078;28;20131;-63
2023/12/13 07:35:10;;;;;;;67.32;29.90;;;;;;;;;;6263545;28;21443;-63
2023/12/13 07:38:12;;;;;;;67.60;28.15;;;;;;;;;;6256420;28;20053;-63
2023/12/13 07:41:13;;;;;;;64.07;29.85;;;;;;;;;;6264617;28;20102;-63
2023/12/13 07:44:13;;;;;;;68.93;29.52;;;;;;;;;;6266441;28;20056;-64
2023/12/13 07:47:14;;;;;;;63.75;28.60;;;;;;;;;;6263494;28;20122;-63
2023/12/13 07:50:15;;;;;;;55.28;26.45;;;;;;;;;;6268357;28;20563;-63
2023/12/13 07:53:16;;;;;;;56.92;26.75;;;;;;;;;;6270548;28;20045;-63
2023/12/13 07:56:16;;;;;;;60.97;29.83;;;;;;;;;;6267553;28;20049;-64
2023/12/13 07:59:17;;;;;;;54.25;28.90;;;;;;;;;;6267426;28;20090;-63
2023/12/13 08:02:20;;;;;;;50.95;24.90;;;;;;;;;;6266611;28;20045;-63
2023/12/13 08:05:21;;;;;;;56.20;26.77;;;;;;;;;;6265101;28;20051;-63
2023/12/13 08:08:21;;;;;;;50.22;27.05;;;;;;;;;;6267195;28;20033;-63
2023/12/13 08:11:22;;;;;;;47.70;24.80;;;;;;;;;;6268556;28;20048;-63
2023/12/13 08:14:26;;;;;;;44.80;21.50;;;;;;;;;;6269531;28;20076;-63
2023/12/13 08:17:27;;;;;;;40.47;20.08;;;;;;;;;;6267765;28;20037;-63
2023/12/13 08:20:29;;;;;;;40.60;19.70;;;;;;;;;;6268524;28;20422;-63
2023/12/13 08:23:30;;;;;;;41.43;20.00;;;;;;;;;;6268006;28;20045;-63
2023/12/13 08:26:31;;;;;;;41.13;20.38;;;;;;;;;;6266523;28;20060;-63
2023/12/13 08:29:31;;;;;;;44.30;21.83;;;;;;;;;;6265458;28;20053;-63
2023/12/13 08:32:32;;;;;;;58.85;25.60;;;;;;;;;;6264368;28;20154;-63
2023/12/13 08:35:33;;;;;;;53.65;23.58;;;;;;;;;;6267008;28;20107;-63
2023/12/13 08:38:33;;;;;;;42.92;21.55;;;;;;;;;;6264933;28;20075;-63
2023/12/13 08:41:34;;;;;;;48.33;23.65;;;;;;;;;;6268735;28;20463;-63
2023/12/13 08:44:35;;;;;;;45.15;21.95;;;;;;;;;;6266383;28;20040;-64
2023/12/13 08:47:35;;;;;;;45.85;22.63;;;;;;;;;;6265147;28;20060;-63
2023/12/13 08:50:36;;;;;;;52.13;22.70;;;;;;;;;;6267833;28;20403;-63
2023/12/13 08:53:37;;;;;;;45.65;22.13;;;;;;;;;;6268580;28;20137;-63
2023/12/13 08:56:37;;;;;;;40.28;22.35;;;;;;;;;;6265821;28;20447;-63
2023/12/13 08:59:38;;;;;;;47.60;23.50;;;;;;;;;;6266376;28;20075;-64
2023/12/13 09:02:39;;;;;;;45.78;22.65;;;;;;;;;;6268279;28;20080;-63
2023/12/13 09:05:39;;;;;;;43.47;22.77;;;;;;;;;;6267178;28;20414;-63
2023/12/13 09:08:40;;;;;;;54.53;27.50;;;;;;;;;;6266806;28;20037;-63
2023/12/13 09:11:42;;;;;;;54.55;26.75;;;;;;;;;;6265735;28;20129;-64
2023/12/13 09:14:43;;;;;;;53.13;27.65;;;;;;;;;;6266427;28;20163;-64
2023/12/13 09:17:47;;;;;;;50.42;23.38;;;;;;;;;;6265876;28;20049;-64
2023/12/13 09:20:48;;;;;;;54.33;22.58;;;;;;;;;;6268041;28;20041;-63
2023/12/13 09:23:49;;;;;;;53.90;22.70;;;;;;;;;;6268039;28;20455;-63
2023/12/13 09:26:50;;;;;;;48.88;21.23;;;;;;;;;;6265068;28;20550;-63
2023/12/13 09:29:50;;;;;;;44.25;20.52;;;;;;;;;;6267453;28;20055;-63
2023/12/13 09:32:51;;;;;;;44.63;21.30;;;;;;;;;;6265738;28;20053;-63
2023/12/13 09:35:53;;;;;;;42.33;19.83;;;;;;;;;;6265976;28;20771;-63
2023/12/13 09:38:54;;;;;;;49.47;22.25;;;;;;;;;;6266184;28;20048;-64
2023/12/13 09:42:03;;;;;;;44.17;21.80;;;;;;;;;;6267595;28;20167;-64
2023/12/13 09:45:06;;;;;;;50.00;22.20;;;;;;;;;;6266992;28;20056;-63
2023/12/13 09:48:07;;;;;;;;;;;;;;;;;;6263870;28;20041;-63
2023/12/13 09:51:10;;;;;;;49.70;24.25;;;;;;;;;;6267239;28;19963;-64
2023/12/13 09:54:12;;;;;;;50.30;24.35;;;;;;;;;;6267441;28;20049;-64
2023/12/13 09:57:15;;;;;;;50.88;24.25;;;;;;;;;;6264988;28;20052;-63
2023/12/13 10:00:16;;;;;;;52.88;25.92;;;;;;;;;;6265781;28;20506;-63
2023/12/13 10:03:16;;;;;;;52.72;25.70;;;;;;;;;;6265612;28;20407;-63
2023/12/13 10:06:17;;;;;;;47.70;24.00;;;;;;;;;;6266064;28;20041;-63
2023/12/13 10:09:18;;;;;;;47.38;23.73;;;;;;;;;;6263073;28;20051;-64
2023/12/13 10:12:18;;;;;;;41.45;20.77;;;;;;;;;;6265499;28;20894;-64
2023/12/13 10:15:19;;;;;;;42.22;22.05;;;;;;;;;;6266291;28;20068;-64
2023/12/13 10:18:20;;;;;;;42.45;20.67;;;;;;;;;;6264342;28;20420;-63
2023/12/13 10:21:21;;;;;;;43.55;21.13;;;;;;;;;;6267431;28;20403;-63
2023/12/13 10:24:23;;;;;;;43.40;22.02;;;;;;;;;;6267529;28;20667;-63
2023/12/13 10:27:24;;;;;;;43.65;21.20;;;;;;;;;;6264903;28;20408;-64
2023/12/13 10:30:26;;;;;;;47.13;21.75;;;;;;;;;;6265527;28;20151;-64
2023/12/13 10:33:27;;;;;;;;;;;;;;;;;;6265167;28;20412;-63
2023/12/13 10:36:29;;;;;;;43.17;20.23;;;;;;;;;;6267215;28;19932;-64
2023/12/13 10:39:32;;;;;;;48.03;22.75;;;;;;;;;;6263435;28;20044;-64
2023/12/13 10:42:37;;;;;;;;;;;;;;;;;;6265339;28;20072;-63
2023/12/13 10:45:45;;;;;;;42.25;19.70;;;;;;;;;;6267566;28;19924;-63
2023/12/13 10:48:46;;;;;;;44.75;20.30;;;;;;;;;;6264382;28;20645;-63
2023/12/13 10:51:48;;;;;;;47.65;21.17;;;;;;;;;;6266202;28;20048;-63
2023/12/13 10:54:50;;;;;;;46.47;21.83;;;;;;;;;;6266760;28;20084;-63
2023/12/13 10:57:51;;;;;;;;;;;;;;;;;;6264838;28;20041;-63
2023/12/13 11:00:52;;;;;;;52.47;23.05;;;;;;;;;;6263207;28;19924;-64
2023/12/13 11:04:06;;;;;;;46.57;22.77;;;;;;;;;;6266959;28;20568;-64
2023/12/13 11:07:07;;;;;;;46.22;22.13;;;;;;;;;;6264381;28;20797;-64
2023/12/13 11:10:09;;;;;;;46.17;23.20;;;;;;;;;;6260562;28;20070;-64
2023/12/13 11:13:20;;;;;;;39.85;19.73;;;;;;;;;;6266419;28;20057;-63
2023/12/13 11:16:25;;;;;;;42.35;19.40;;;;;;;;;;6265234;28;20053;-64
2023/12/13 11:19:27;;;;;;;39.30;19.65;;;;;;;;;;6263133;28;20602;-63
2023/12/13 11:22:33;;;;;;;46.40;23.70;;;;;;;;;;6265521;28;20056;-63
2023/12/13 11:25:35;;;;;;;44.88;21.02;;;;;;;;;;6265387;28;20049;-64
2023/12/13 11:28:37;;;;;;;49.83;22.35;;;;;;;;;;6262447;28;20045;-64
2023/12/13 11:31:47;;;;;;;46.83;21.60;;;;;;;;;;6264337;28;20562;-65
2023/12/13 11:34:48;;;;;;;42.35;22.55;;;;;;;;;;6262789;28;20395;-63
2023/12/13 11:37:54;;;;;;;46.10;21.90;;;;;;;;;;6265072;28;20087;-64
2023/12/13 11:40:56;;;;;;;45.90;22.08;;;;;;;;;;6265011;28;20045;-64
2023/12/13 11:43:56;;;;;;;44.28;21.55;;;;;;;;;;6263702;28;20056;-64
2023/12/13 11:46:59;;;;;;;44.78;20.73;;;;;;;;;;6265145;28;20049;-64
2023/12/13 11:50:00;;;;;;;48.50;22.70;;;;;;;;;;6262982;28;20080;-64
2023/12/13 11:53:01;;;;;;;53.53;24.73;;;;;;;;;;6262447;28;20124;-64
2023/12/13 11:56:10;;;;;;;46.90;23.50;;;;;;;;;;6265055;28;20407;-64
2023/12/13 11:59:11;;;;;;;47.70;22.98;;;;;;;;;;6265212;28;20044;-63
2023/12/13 12:02:16;;;;;;;48.65;23.52;;;;;;;;;;6263698;28;20480;-64
2023/12/13 12:05:17;;;;;;;52.33;23.98;;;;;;;;;;6262980;28;20144;-64
2023/12/13 12:08:23;;;;;;;50.65;24.02;;;;;;;;;;6264022;28;20399;-64
2023/12/13 12:11:24;;;;;;;48.63;22.38;;;;;;;;;;6263098;28;20059;-64
2023/12/13 12:14:29;;;;;;;50.95;23.45;;;;;;;;;;6262321;28;20057;-64
2023/12/13 12:17:30;;;;;;;51.42;23.80;;;;;;;;;;6263320;28;20047;-64
2023/12/13 12:20:31;;;;;;;66.95;28.88;;;;;;;;;;6264201;28;20041;-64
2023/12/13 12:23:34;;;;;;;70.57;31.55;;;;;;;;;;6261861;28;20136;-63
2023/12/13 12:26:35;;;;;;;64.68;27.92;;;;;;;;;;6264588;28;20114;-64
2023/12/13 12:29:36;;;;;;;64.18;28.50;;;;;;;;;;6262225;28;20052;-64
2023/12/13 12:32:37;;;;;;;64.85;28.42;;;;;;;;;;6263865;28;20127;-64
2023/12/13 12:35:38;;;;;;;77.03;33.30;;;;;;;;;;6268387;28;20053;-63
2023/12/13 12:38:39;;;;;;;61.33;28.40;;;;;;;;;;6269342;28;20067;-64
2023/12/13 12:41:40;;;;;;;71.28;32.05;;;;;;;;;;6267104;28;20051;-64
2023/12/13 12:44:41;;;;;;;62.67;29.98;;;;;;;;;;6265066;28;20049;-64
2023/12/13 12:47:42;;;;;;;53.10;27.90;;;;;;;;;;6268165;28;20068;-64
2023/12/13 12:50:44;;;;;;;56.17;28.02;;;;;;;;;;6268543;28;20095;-64
2023/12/13 12:53:45;;;;;;;61.70;28.52;;;;;;;;;;6266998;28;20075;-64
2023/12/13 12:56:46;;;;;;;67.22;31.95;;;;;;;;;;6268368;28;20459;-62
2023/12/13 12:59:50;;;;;;;76.50;34.72;;;;;;;;;;6268806;28;20433;-64
2023/12/13 13:02:54;;;;;;;76.70;33.72;;;;;;;;;;6266564;28;20591;-62
2023/12/13 13:05:55;;;;;;;79.55;34.88;;;;;;;;;;6267079;28;20460;-64
2023/12/13 13:08:55;;;;;;;77.88;33.42;;;;;;;;;;6267229;28;20049;-62
2023/12/13 13:11:56;;;;;;;73.07;32.30;;;;;;;;;;6269680;28;20500;-63
2023/12/13 13:14:58;;;;;;;72.43;32.83;;;;;;;;;;6263824;28;20053;-64
2023/12/13 13:17:59;;;;;;;69.88;32.75;;;;;;;;;;6268064;28;20148;-64
2023/12/13 13:21:00;;;;;;;65.95;30.70;;;;;;;;;;6269075;28;20480;-64
2023/12/13 13:24:01;;;;;;;64.82;32.42;;;;;;;;;;6267391;28;20059;-64
2023/12/13 13:27:01;;;;;;;73.43;33.85;;;;;;;;;;6268385;28;20049;-64
2023/12/13 13:30:03;;;;;;;73.32;36.30;;;;;;;;;;6267354;28;20071;-64
2023/12/13 13:33:04;;;;;;;79.97;38.90;;;;;;;;;;6265480;28;20051;-64
2023/12/13 13:36:06;;;;;;;79.22;38.08;;;;;;;;;;6265910;28;20467;-64
2023/12/13 13:39:09;;;;;;;72.13;35.58;;;;;;;;;;6266099;28;20084;-64
2023/12/13 13:42:09;;;;;;;70.65;35.90;;;;;;;;;;6265406;28;20051;-64
2023/12/13 13:45:10;;;;;;;70.60;35.28;;;;;;;;;;6264736;28;20809;-63
2023/12/13 13:48:11;;;;;;;72.10;34.55;;;;;;;;;;6267770;28;20123;-64
2023/12/13 13:51:13;;;;;;;74.25;39.50;;;;;;;;;;6265295;28;20090;-64
2023/12/13 13:54:15;;;;;;;;;;;;;;;;;;6266221;28;20049;-64
2023/12/13 13:57:15;;;;;;;70.72;37.50;;;;;;;;;;6252788;28;19932;-64
2023/12/13 14:00:19;;;;;;;77.43;40.40;;;;;;;;;;6246680;28;20057;-63
2023/12/13 14:03:21;;;;;;;77.82;42.15;;;;;;;;;;6243535;28;20073;-63
2023/12/13 14:06:22;;;;;;;77.85;38.50;;;;;;;;;;6241975;28;20037;-62
2023/12/13 14:09:22;;;;;;;82.60;37.63;;;;;;;;;;6240969;28;20621;-63
2023/12/13 14:12:23;;;;;;;83.78;37.45;;;;;;;;;;6244533;28;20721;-63
2023/12/13 14:15:24;;;;;;;80.03;36.63;;;;;;;;;;6239017;28;20053;-63
2023/12/13 14:18:25;;;;;;;71.75;34.45;;;;;;;;;;6244030;28;20049;-63
2023/12/13 14:21:25;;;;;;;67.45;35.15;;;;;;;;;;6246619;28;20057;-63
2023/12/13 14:24:26;;;;;;;76.78;37.08;;;;;;;;;;6239329;28;20037;-63
2023/12/13 14:27:26;;;;;;;79.45;37.17;;;;;;;;;;6242633;28;20053;-63
2023/12/13 14:30:27;;;;;;;73.90;37.83;;;;;;;;;;6246338;28;20065;-63
2023/12/13 14:33:29;;;;;;;81.68;38.63;;;;;;;;;;6240108;28;20052;-63
2023/12/13 14:36:29;;;;;;;91.22;43.03;;;;;;;;;;6244329;28;20041;-64
2023/12/13 14:39:30;;;;;;;97.47;47.22;;;;;;;;;;6241659;28;20053;-64
2023/12/13 14:42:31;;;;;;;94.47;42.65;;;;;;;;;;6243960;28;20084;-64
2023/12/13 14:45:32;;;;;;;70.03;35.45;;;;;;;;;;6241390;28;20049;-64
2023/12/13 14:48:33;;;;;;;81.38;38.42;;;;;;;;;;6241015;28;20187;-64
2023/12/13 14:51:35;;;;;;;78.40;37.60;;;;;;;;;;6242020;28;20056;-64
2023/12/13 14:54:36;;;;;;;75.40;35.05;;;;;;;;;;6240324;28;20049;-63
2023/12/13 14:57:37;;;;;;;81.35;37.15;;;;;;;;;;6236511;28;20674;-64
2023/12/13 15:00:38;;;;;;;74.70;36.95;;;;;;;;;;6248161;28;20091;-64
2023/12/13 15:03:38;;;;;;;72.88;36.97;;;;;;;;;;6239283;28;20075;-64
2023/12/13 15:06:40;;;;;;;84.95;41.53;;;;;;;;;;6238963;28;20569;-64
2023/12/13 15:09:41;;;;;;;80.82;39.38;;;;;;;;;;6242193;28;20056;-64
2023/12/13 15:12:43;;;;;;;75.43;35.20;;;;;;;;;;6242662;28;20049;-64
2023/12/13 15:15:46;;;;;;;73.60;35.15;;;;;;;;;;6242820;28;20052;-64
2023/12/13 15:18:47;;;;;;;77.80;35.85;;;;;;;;;;6238524;28;20079;-64
2023/12/13 15:21:48;;;;;;;73.00;35.35;;;;;;;;;;6239736;28;20045;-64
2023/12/13 15:24:49;;;;;;;74.82;36.83;;;;;;;;;;6243114;28;20045;-64
2023/12/13 15:27:50;;;;;;;81.07;39.65;;;;;;;;;;6242105;28;20483;-64
2023/12/13 15:30:50;;;;;;;80.70;38.38;;;;;;;;;;6237928;28;20048;-63
2023/12/13 15:33:51;;;;;;;74.07;36.40;;;;;;;;;;6240574;28;20504;-64
2023/12/13 15:36:52;;;;;;;98.32;46.75;;;;;;;;;;6240578;28;20168;-64
2023/12/13 15:39:52;;;;;;;98.00;48.08;;;;;;;;;;6239214;28;20061;-63
2023/12/13 15:42:53;;;;;;;91.78;44.08;;;;;;;;;;6243688;28;20108;-64
2023/12/13 15:45:57;;;;;;;100.57;46.35;;;;;;;;;;6240680;28;20062;-64
2023/12/13 15:48:58;;;;;;;101.50;46.47;;;;;;;;;;6238061;28;21361;-64
2023/12/13 15:52:02;;;;;;;94.85;45.25;;;;;;;;;;6242759;28;20053;-64
2023/12/13 15:55:04;;;;;;;82.05;39.53;;;;;;;;;;6241267;28;20029;-64
2023/12/13 15:58:05;;;;;;;85.50;39.50;;;;;;;;;;6244051;28;20049;-63
2023/12/13 16:01:05;;;;;;;85.90;41.15;;;;;;;;;;6243062;28;20042;-64
2023/12/13 16:04:06;;;;;;;85.78;40.80;;;;;;;;;;6241648;28;20049;-64
2023/12/13 16:07:07;;;;;;;79.50;38.58;;;;;;;;;;6244900;28;20059;-66
2023/12/13 16:10:08;;;;;;;78.60;37.38;;;;;;;;;;6243325;28;20049;-64
2023/12/13 16:13:09;;;;;;;89.70;41.05;;;;;;;;;;6247436;28;20209;-64
2023/12/13 16:16:10;;;;;;;87.72;41.22;;;;;;;;;;6246624;28;20504;-64
2023/12/13 16:19:11;;;;;;;89.10;40.05;;;;;;;;;;6242205;28;20049;-64
2023/12/13 16:22:11;;;;;;;87.32;42.38;;;;;;;;;;6247101;28;20049;-64
2023/12/13 16:25:12;;;;;;;93.70;45.63;;;;;;;;;;6248593;28;20056;-64
2023/12/13 16:28:13;;;;;;;104.07;49.25;;;;;;;;;;6248491;28;20531;-63
2023/12/13 16:31:15;;;;;;;86.50;42.53;;;;;;;;;;6247793;28;20057;-63
2023/12/13 16:34:16;;;;;;;74.32;36.90;;;;;;;;;;6246673;28;20081;-64
2023/12/13 16:37:17;;;;;;;78.32;39.05;;;;;;;;;;6245479;28;20594;-63
2023/12/13 16:40:18;;;;;;;81.28;40.83;;;;;;;;;;6248387;28;20057;-63
2023/12/13 16:43:19;;;;;;;83.65;41.42;;;;;;;;;;6247712;28;20060;-63
2023/12/13 16:46:22;;;;;;;79.00;36.65;;;;;;;;;;6249699;28;20532;-64
2023/12/13 16:49:23;;;;;;;70.68;35.03;;;;;;;;;;6252152;28;20085;-64
2023/12/13 16:52:24;;;;;;;73.55;33.67;;;;;;;;;;6248570;28;20067;-63
2023/12/13 16:55:27;;;;;;;75.43;36.85;;;;;;;;;;6247114;28;20069;-64
2023/12/13 16:58:27;;;;;;;71.35;34.22;;;;;;;;;;6245622;28;20064;-63
2023/12/13 17:01:28;;;;;;;69.40;34.55;;;;;;;;;;6247530;28;20140;-63
2023/12/13 17:04:28;;;;;;;66.38;31.48;;;;;;;;;;6243380;28;20060;-63
2023/12/13 17:07:33;;;;;;;65.70;32.70;;;;;;;;;;6249611;28;20103;-64
2023/12/13 17:10:33;;;;;;;71.32;35.05;;;;;;;;;;6247766;28;20336;-64
2023/12/13 17:13:34;;;;;;;75.57;35.38;;;;;;;;;;6250297;28;20049;-62
2023/12/13 17:16:35;;;;;;;77.05;36.25;;;;;;;;;;6243143;28;20077;-62
2023/12/13 17:19:36;;;;;;;77.30;35.88;;;;;;;;;;6247016;28;20385;-62
2023/12/13 17:22:36;;;;;;;73.88;37.20;;;;;;;;;;6247707;28;20052;-64
2023/12/13 17:25:37;;;;;;;84.55;41.28;;;;;;;;;;6246138;28;20048;-65
2023/12/13 17:28:38;;;;;;;79.63;38.80;;;;;;;;;;6246796;28;20056;-64
2023/12/13 17:31:38;;;;;;;77.00;39.33;;;;;;;;;;6246951;28;20048;-64
2023/12/13 17:34:39;;;;;;;80.00;40.75;;;;;;;;;;6248563;28;20099;-64
2023/12/13 17:37:40;;;;;;;82.55;41.92;;;;;;;;;;6248907;28;20049;-64